createdAt,value
2023-01-21T00:02:21.016Z,16.17
2023-01-21T00:04:49.203Z,15.17
2023-01-21T00:07:17.385Z,15.27
2023-01-21T00:09:48.895Z,15.50
2023-01-21T00:12:17.034Z,15.40
2023-01-21T00:14:45.139Z,16.47
2023-01-21T00:17:13.214Z,14.87
2023-01-21T00:19:43.601Z,14.93
2023-01-21T00:22:13.897Z,15.67
2023-01-21T00:24:42.000Z,17.37
2023-01-21T00:27:11.493Z,15.50
2023-01-21T00:29:39.612Z,16.10
2023-01-21T00:32:07.842Z,16.07
2023-01-21T00:34:36.088Z,15.50
2023-01-21T00:37:06.754Z,15.60
2023-01-21T00:39:37.145Z,15.47
2023-01-21T00:42:05.240Z,15.23
2023-01-21T00:44:34.709Z,16.13
2023-01-21T00:47:02.799Z,14.53
2023-01-21T00:49:30.911Z,15.07
2023-01-21T00:52:01.560Z,14.70
2023-01-21T00:54:31.291Z,14.17
2023-01-21T00:56:59.838Z,13.97
2023-01-21T00:59:28.316Z,14.63
2023-01-21T01:01:58.033Z,14.70
2023-01-21T01:04:26.243Z,14.00
2023-01-21T01:06:54.472Z,13.63
2023-01-21T01:09:22.685Z,14.77
2023-01-21T01:11:50.922Z,13.27
2023-01-21T01:14:20.511Z,13.63
2023-01-21T01:16:50.393Z,14.63
2023-01-21T01:19:20.033Z,14.53
2023-01-21T01:21:51.291Z,14.27
2023-01-21T01:24:21.739Z,14.33
2023-01-21T01:26:49.883Z,14.80
2023-01-21T01:29:20.326Z,14.67
2023-01-21T01:31:48.610Z,15.27
2023-01-21T01:34:16.717Z,14.40
2023-01-21T01:36:46.252Z,16.27
2023-01-21T01:39:17.030Z,16.07
2023-01-21T01:41:45.219Z,15.83
2023-01-21T01:44:50.479Z,15.97
2023-01-21T01:47:21.671Z,16.27
2023-01-21T01:49:49.993Z,14.07
2023-01-21T01:52:24.000Z,15.90
2023-01-21T01:54:57.159Z,15.43
2023-01-21T01:57:35.297Z,15.73
2023-01-21T02:00:07.824Z,16.40
2023-01-21T02:02:40.865Z,15.37
2023-01-21T02:05:12.550Z,16.60
2023-01-21T02:07:45.046Z,15.43
2023-01-21T02:10:20.746Z,14.00
2023-01-21T02:12:48.867Z,15.37
2023-01-21T02:15:17.326Z,13.90
2023-01-21T02:17:58.735Z,14.97
2023-01-21T02:21:03.465Z,16.83
2023-01-21T02:23:53.431Z,16.10
2023-01-21T02:27:03.319Z,15.93
2023-01-21T02:30:01.915Z,15.40
2023-01-21T02:32:55.327Z,15.27
2023-01-21T02:35:29.214Z,14.70
2023-01-21T02:38:06.976Z,16.00
2023-01-21T02:40:45.588Z,14.37
2023-01-21T02:43:19.242Z,14.23
2023-01-21T02:45:52.459Z,13.97
2023-01-21T02:48:29.604Z,13.30
2023-01-21T02:50:57.940Z,14.20
2023-01-21T02:53:28.743Z,13.87
2023-01-21T02:55:58.774Z,13.37
2023-01-21T02:58:33.125Z,16.10
2023-01-21T03:01:12.498Z,16.00
2023-01-21T03:03:57.095Z,14.20
2023-01-21T03:06:42.296Z,13.43
2023-01-21T03:09:20.954Z,14.60
2023-01-21T03:12:08.991Z,14.63
2023-01-21T03:15:03.652Z,14.47
2023-01-21T03:17:37.657Z,13.47
2023-01-21T03:20:12.497Z,14.33
2023-01-21T03:22:41.315Z,15.30
2023-01-21T03:25:14.530Z,14.20
2023-01-21T03:27:45.876Z,14.20
2023-01-21T03:30:18.692Z,14.53
2023-01-21T03:32:50.129Z,14.17
2023-01-21T03:35:24.856Z,14.43
2023-01-21T03:37:59.155Z,13.53
2023-01-21T03:40:29.608Z,15.73
2023-01-21T03:43:00.393Z,15.13
2023-01-21T03:45:40.946Z,14.70
2023-01-21T03:48:18.262Z,16.13
2023-01-21T03:50:53.192Z,15.60
2023-01-21T03:53:23.588Z,14.13
2023-01-21T03:55:54.177Z,15.00
2023-01-21T03:58:22.268Z,14.67
2023-01-21T04:00:50.374Z,16.20
2023-01-21T04:03:18.566Z,14.03
2023-01-21T04:05:48.007Z,13.83
2023-01-21T04:08:16.107Z,15.33
2023-01-21T04:10:46.758Z,16.07
2023-01-21T04:13:14.839Z,16.30
2023-01-21T04:15:42.871Z,15.33
2023-01-21T04:18:10.906Z,15.97
2023-01-21T04:20:38.980Z,16.43
2023-01-21T04:23:08.464Z,17.83
2023-01-21T04:25:36.627Z,17.07
2023-01-21T04:28:05.046Z,18.03
2023-01-21T04:30:33.215Z,17.27
2023-01-21T04:33:03.540Z,17.63
2023-01-21T04:35:31.656Z,16.13
2023-01-21T04:37:59.798Z,16.67
2023-01-21T04:40:29.286Z,18.00
2023-01-21T04:42:59.691Z,18.10
2023-01-21T04:45:27.734Z,16.83
2023-01-21T04:47:55.824Z,18.37
2023-01-21T04:50:27.094Z,16.73
2023-01-21T04:52:55.142Z,16.60
2023-01-21T04:55:25.425Z,18.47
2023-01-21T04:57:57.754Z,18.10
2023-01-21T05:00:25.996Z,16.03
2023-01-21T05:02:54.097Z,16.33
2023-01-21T05:05:24.541Z,17.00
2023-01-21T05:07:55.370Z,17.10
2023-01-21T05:10:23.490Z,17.87
2023-01-21T05:12:51.588Z,17.40
2023-01-21T05:15:21.163Z,17.07
2023-01-21T05:17:49.210Z,17.23
2023-01-21T05:20:20.177Z,16.30
2023-01-21T05:22:48.827Z,16.00
2023-01-21T05:25:19.859Z,16.83
2023-01-21T05:27:53.112Z,16.10
2023-01-21T05:30:24.850Z,16.33
2023-01-21T05:32:53.177Z,16.13
2023-01-21T05:35:21.904Z,17.83
2023-01-21T05:37:50.203Z,15.93
2023-01-21T05:40:19.407Z,17.47
2023-01-21T05:42:47.997Z,16.87
2023-01-21T05:45:16.206Z,17.43
2023-01-21T05:47:45.697Z,16.53
2023-01-21T05:50:13.811Z,17.47
2023-01-21T05:52:41.929Z,16.83
2023-01-21T05:55:10.177Z,16.60
2023-01-21T05:57:40.527Z,18.00
2023-01-21T06:00:10.159Z,19.33
2023-01-21T06:02:38.264Z,19.90
2023-01-21T06:05:08.769Z,17.17
2023-01-21T06:07:39.216Z,17.23
2023-01-21T06:10:08.652Z,19.30
2023-01-21T06:12:36.801Z,20.03
2023-01-21T06:15:05.374Z,18.10
2023-01-21T06:17:33.392Z,18.77
2023-01-21T06:20:01.580Z,18.30
2023-01-21T06:22:31.080Z,18.27
2023-01-21T06:24:59.157Z,19.43
2023-01-21T06:27:27.345Z,20.97
2023-01-21T06:29:55.430Z,17.70
2023-01-21T06:32:23.493Z,17.87
2023-01-21T06:34:53.875Z,17.60
2023-01-21T06:37:21.968Z,18.10
2023-01-21T06:39:53.902Z,18.00
2023-01-21T06:42:22.524Z,17.70
2023-01-21T06:44:50.602Z,17.20
2023-01-21T06:47:18.804Z,18.47
2023-01-21T06:49:48.994Z,17.63
2023-01-21T06:52:18.409Z,20.13
2023-01-21T06:54:46.596Z,19.03
2023-01-21T06:57:18.373Z,19.27
2023-01-21T06:59:46.476Z,18.40
2023-01-21T07:02:16.902Z,18.63
2023-01-21T07:04:45.571Z,19.53
2023-01-21T07:07:13.657Z,18.63
2023-01-21T07:09:41.760Z,17.63
2023-01-21T07:12:10.186Z,19.13
2023-01-21T07:14:39.741Z,20.93
2023-01-21T07:17:10.277Z,21.53
2023-01-21T07:19:40.688Z,20.63
2023-01-21T07:22:10.871Z,21.30
2023-01-21T07:24:39.121Z,20.13
2023-01-21T07:27:10.050Z,21.07
2023-01-21T07:29:39.558Z,20.63
2023-01-21T07:32:07.657Z,20.43
2023-01-21T07:34:35.820Z,22.70
2023-01-21T07:37:03.987Z,21.27
2023-01-21T07:39:32.012Z,21.57
2023-01-21T07:42:00.149Z,21.17
2023-01-21T07:44:28.291Z,20.47
2023-01-21T07:46:57.726Z,18.83
2023-01-21T07:49:25.830Z,19.67
2023-01-21T07:51:57.424Z,20.17
2023-01-21T07:54:25.703Z,19.60
2023-01-21T07:56:53.846Z,19.60
2023-01-21T07:59:24.448Z,17.87
2023-01-21T08:01:53.058Z,20.23
2023-01-21T08:04:22.671Z,19.23
2023-01-21T08:06:56.950Z,22.83
2023-01-21T08:09:25.412Z,21.67
2023-01-21T08:11:53.566Z,21.70
2023-01-21T08:14:23.734Z,22.40
2023-01-21T08:16:51.838Z,19.57
2023-01-21T08:19:19.924Z,21.80
2023-01-21T08:21:52.193Z,22.00
2023-01-21T08:24:22.735Z,21.83
2023-01-21T08:26:53.345Z,20.90
2023-01-21T08:29:21.423Z,21.53
2023-01-21T08:31:49.585Z,20.77
2023-01-21T08:34:17.691Z,21.97
2023-01-21T08:36:45.764Z,21.23
2023-01-21T08:39:16.301Z,22.17
2023-01-21T08:41:44.516Z,21.57
2023-01-21T08:44:12.667Z,21.07
2023-01-21T08:46:40.721Z,21.57
2023-01-21T08:49:08.966Z,20.40
2023-01-21T08:51:37.080Z,20.17
2023-01-21T08:54:08.341Z,23.10
2023-01-21T08:56:40.372Z,19.90
2023-01-21T08:59:11.024Z,20.40
2023-01-21T09:01:41.019Z,21.87
2023-01-21T09:04:09.818Z,19.97
2023-01-21T09:06:37.900Z,22.17
2023-01-21T09:09:08.426Z,22.53
2023-01-21T09:11:40.411Z,20.80
2023-01-21T09:14:11.074Z,21.10
2023-01-21T09:16:39.628Z,21.10
2023-01-21T09:19:09.993Z,21.60
2023-01-21T09:21:40.558Z,20.83
2023-01-21T09:24:11.557Z,19.93
2023-01-21T09:26:45.107Z,18.13
2023-01-21T09:29:13.267Z,17.03
2023-01-21T09:31:41.576Z,18.90
2023-01-21T09:34:12.390Z,17.53
2023-01-21T09:36:40.804Z,18.37
2023-01-21T09:39:09.370Z,18.23
2023-01-21T09:41:39.379Z,19.17
2023-01-21T09:44:20.607Z,19.40
2023-01-21T09:46:57.236Z,20.00
2023-01-21T09:49:29.648Z,20.43
2023-01-21T09:52:07.379Z,19.07
2023-01-21T09:54:37.122Z,21.80
2023-01-21T09:57:37.688Z,19.37
2023-01-21T10:00:25.766Z,19.90
2023-01-21T10:03:00.488Z,19.87
2023-01-21T10:06:09.389Z,19.87
2023-01-21T10:08:52.727Z,20.70
2023-01-21T10:11:35.862Z,19.33
2023-01-21T10:14:21.008Z,20.27
2023-01-21T10:17:01.123Z,19.73
2023-01-21T10:19:36.963Z,20.37
2023-01-21T10:22:11.082Z,21.87
2023-01-21T10:24:46.276Z,21.30
2023-01-21T10:27:18.012Z,19.90
2023-01-21T10:29:49.172Z,20.83
2023-01-21T10:32:23.382Z,19.73
2023-01-21T10:34:53.135Z,19.23
2023-01-21T10:37:28.409Z,20.43
2023-01-21T10:40:06.727Z,21.57
2023-01-21T10:42:51.442Z,20.23
2023-01-21T10:45:28.508Z,20.73
2023-01-21T10:48:06.999Z,19.70
2023-01-21T10:50:49.424Z,20.73
2023-01-21T10:53:24.513Z,18.40
2023-01-21T10:56:05.144Z,19.03
2023-01-21T10:58:37.740Z,20.17
2023-01-21T11:01:10.498Z,18.93
2023-01-21T11:03:43.355Z,20.17
2023-01-21T11:06:14.807Z,19.53
2023-01-21T11:08:48.527Z,19.57
2023-01-21T11:11:26.495Z,19.70
2023-01-21T11:13:55.166Z,19.47
2023-01-21T11:16:35.237Z,20.87
2023-01-21T11:19:08.471Z,18.97
2023-01-21T11:21:40.036Z,20.20
2023-01-21T11:24:23.092Z,19.30
2023-01-21T11:26:55.838Z,19.50
2023-01-21T11:29:27.508Z,20.50
2023-01-21T11:32:04.044Z,19.53
2023-01-21T11:34:34.441Z,20.40
2023-01-21T11:37:25.670Z,19.17
2023-01-21T11:40:01.152Z,19.70
2023-01-21T11:42:40.056Z,20.67
2023-01-21T11:45:32.297Z,21.17
2023-01-21T11:48:02.898Z,20.23
2023-01-21T11:50:37.659Z,19.53
2023-01-21T11:53:15.070Z,20.43
2023-01-21T11:55:46.705Z,21.03
2023-01-21T11:58:19.887Z,18.67
2023-01-21T12:00:53.009Z,17.87
2023-01-21T12:03:23.798Z,18.67
2023-01-21T12:05:54.766Z,21.80
2023-01-21T12:08:26.220Z,18.50
2023-01-21T12:10:56.071Z,18.37
2023-01-21T12:13:36.815Z,18.97
2023-01-21T12:16:28.060Z,18.30
2023-01-21T12:19:16.491Z,17.50
2023-01-21T12:22:00.018Z,17.53
2023-01-21T12:24:42.179Z,18.47
2023-01-21T12:27:22.129Z,18.43
2023-01-21T12:30:01.356Z,17.03
2023-01-21T12:32:38.054Z,19.57
2023-01-21T12:35:11.921Z,19.33
2023-01-21T12:37:49.271Z,16.83
2023-01-21T12:40:25.263Z,18.97
2023-01-21T12:42:57.099Z,19.47
2023-01-21T12:45:34.558Z,17.50
2023-01-21T12:48:05.900Z,19.07
2023-01-21T12:50:41.244Z,20.90
2023-01-21T12:53:21.042Z,18.47
2023-01-21T12:56:04.258Z,19.07
2023-01-21T12:58:38.683Z,18.73
2023-01-21T13:01:14.250Z,20.00
2023-01-21T13:03:51.458Z,22.90
2023-01-21T13:06:29.711Z,20.70
2023-01-21T13:09:18.805Z,20.27
2023-01-21T13:11:55.689Z,19.57
2023-01-21T13:14:31.273Z,20.00
2023-01-21T13:17:02.977Z,20.67
2023-01-21T13:19:31.104Z,19.80
2023-01-21T13:22:06.235Z,19.83
2023-01-21T13:24:57.129Z,20.47
2023-01-21T13:27:32.434Z,18.60
2023-01-21T13:30:10.828Z,20.33
2023-01-21T13:32:48.584Z,19.90
2023-01-21T13:35:26.568Z,19.67
2023-01-21T13:38:04.857Z,19.13
2023-01-21T13:40:48.589Z,19.60
2023-01-21T13:43:40.549Z,19.77
2023-01-21T13:46:26.013Z,18.13
2023-01-21T13:49:07.476Z,18.77
2023-01-21T13:51:47.030Z,20.47
2023-01-21T13:54:30.713Z,20.60
2023-01-21T13:57:16.474Z,19.97
2023-01-21T13:59:48.475Z,19.13
2023-01-21T14:02:22.392Z,18.80
2023-01-21T14:04:56.697Z,19.43
2023-01-21T14:07:29.059Z,18.80
2023-01-21T14:10:04.051Z,20.17
2023-01-21T14:12:58.726Z,18.67
2023-01-21T14:15:49.215Z,18.93
2023-01-21T14:18:48.061Z,17.43
2023-01-21T14:21:40.975Z,17.70
2023-01-21T14:24:37.596Z,16.20
2023-01-21T14:27:19.595Z,16.80
2023-01-21T14:29:55.694Z,16.67
2023-01-21T14:32:31.642Z,16.97
2023-01-21T14:35:14.827Z,17.77
2023-01-21T14:37:46.351Z,17.60
2023-01-21T14:40:19.631Z,17.23
2023-01-21T14:42:51.799Z,18.10
2023-01-21T14:45:25.708Z,19.53
2023-01-21T14:47:57.828Z,19.87
2023-01-21T14:51:12.127Z,16.73
2023-01-21T14:53:46.202Z,16.60
2023-01-21T14:56:21.009Z,15.13
2023-01-21T14:58:50.936Z,17.57
2023-01-21T15:01:34.250Z,15.80
2023-01-21T15:04:07.391Z,16.53
2023-01-21T15:06:40.750Z,16.00
2023-01-21T15:09:18.809Z,15.70
2023-01-21T15:11:46.935Z,16.33
2023-01-21T15:14:20.878Z,18.37
2023-01-21T15:16:50.435Z,17.27
2023-01-21T15:19:25.723Z,16.43
2023-01-21T15:22:10.340Z,17.63
2023-01-21T15:24:41.657Z,18.30
2023-01-21T15:27:18.339Z,17.60
2023-01-21T15:30:07.777Z,18.20
2023-01-21T15:32:39.527Z,18.07
2023-01-21T15:35:18.269Z,17.23
2023-01-21T15:37:49.810Z,17.47
2023-01-21T15:40:20.866Z,17.83
2023-01-21T15:42:56.664Z,16.60
2023-01-21T15:45:33.745Z,17.70
2023-01-21T15:48:16.110Z,16.17
2023-01-21T15:50:51.975Z,16.80
2023-01-21T15:53:41.009Z,16.97
2023-01-21T15:56:30.497Z,16.83
2023-01-21T15:59:10.998Z,16.60
2023-01-21T16:01:40.332Z,17.73
2023-01-21T16:04:26.335Z,16.37
2023-01-21T16:07:14.923Z,15.73
2023-01-21T16:09:55.953Z,17.77
2023-01-21T16:12:30.663Z,15.87
2023-01-21T16:15:11.053Z,15.73
2023-01-21T16:18:19.921Z,16.03
2023-01-21T16:20:53.789Z,15.43
2023-01-21T16:23:24.580Z,17.03
2023-01-21T16:25:54.069Z,16.03
2023-01-21T16:28:22.553Z,16.33
2023-01-21T16:30:55.935Z,15.77
2023-01-21T16:33:26.596Z,17.63
2023-01-21T16:35:57.810Z,18.57
2023-01-21T16:38:28.700Z,17.80
2023-01-21T16:41:22.431Z,17.90
2023-01-21T16:43:52.386Z,18.40
2023-01-21T16:46:24.722Z,17.73
2023-01-21T16:48:54.714Z,17.30
2023-01-21T16:51:30.145Z,18.77
2023-01-21T16:54:22.920Z,18.17
2023-01-21T16:56:53.159Z,18.97
2023-01-21T16:59:22.262Z,18.53
2023-01-21T17:01:52.501Z,18.37
2023-01-21T17:04:20.699Z,18.77
2023-01-21T17:06:51.740Z,18.27
2023-01-21T17:09:38.001Z,19.17
2023-01-21T17:12:09.083Z,19.50
2023-01-21T17:14:38.033Z,19.13
2023-01-21T17:17:09.403Z,19.47
2023-01-21T17:19:43.600Z,18.57
2023-01-21T17:22:20.339Z,18.77
2023-01-21T17:24:59.452Z,20.83
2023-01-21T17:27:28.373Z,20.47
2023-01-21T17:30:18.104Z,19.97
2023-01-21T17:32:55.094Z,20.07
2023-01-21T17:35:24.730Z,20.37
2023-01-21T17:37:56.623Z,20.93
2023-01-21T17:40:27.048Z,21.40
2023-01-21T17:42:55.847Z,22.33
2023-01-21T17:45:30.091Z,22.57
2023-01-21T17:48:09.505Z,20.40
2023-01-21T17:50:46.774Z,23.13
2023-01-21T17:53:23.921Z,21.77
2023-01-21T17:56:01.046Z,21.30
2023-01-21T17:58:44.325Z,22.10
2023-01-21T18:01:15.656Z,21.37
2023-01-21T18:03:43.960Z,22.13
2023-01-21T18:06:18.640Z,21.27
2023-01-21T18:08:50.436Z,22.00
2023-01-21T18:11:19.447Z,21.03
2023-01-21T18:13:50.069Z,21.27
2023-01-21T18:16:18.440Z,21.60
2023-01-21T18:18:46.562Z,26.10
2023-01-21T18:21:20.066Z,26.77
2023-01-21T18:23:49.894Z,27.20
2023-01-21T18:26:25.987Z,31.33
2023-01-21T18:28:54.141Z,24.13
2023-01-21T18:31:22.974Z,21.97
2023-01-21T18:33:53.482Z,22.13
2023-01-21T18:36:21.623Z,25.13
2023-01-21T18:38:51.223Z,21.67
2023-01-21T18:41:19.324Z,23.60
2023-01-21T18:43:47.493Z,22.57
2023-01-21T18:46:19.713Z,20.10
2023-01-21T18:48:47.986Z,22.07
2023-01-21T18:51:16.245Z,20.97
2023-01-21T18:53:44.571Z,21.67
2023-01-21T18:56:16.791Z,22.10
2023-01-21T18:58:44.901Z,22.43
2023-01-21T19:01:23.109Z,22.27
2023-01-21T19:03:55.698Z,21.23
2023-01-21T19:06:25.893Z,21.13
2023-01-21T19:08:56.601Z,21.27
2023-01-21T19:11:26.086Z,26.07
2023-01-21T19:13:54.171Z,33.60
2023-01-21T19:16:23.048Z,26.30
2023-01-21T19:18:54.241Z,23.47
2023-01-21T19:21:22.340Z,22.93
2023-01-21T19:23:50.457Z,22.47
2023-01-21T19:26:18.618Z,21.17
2023-01-21T19:28:48.069Z,21.03
2023-01-21T19:31:16.427Z,20.97
2023-01-21T19:33:45.748Z,21.87
2023-01-21T19:36:20.482Z,20.57
2023-01-21T19:38:55.261Z,19.77
2023-01-21T19:41:23.509Z,20.70
2023-01-21T19:43:53.108Z,21.57
2023-01-21T19:46:23.730Z,20.47
2023-01-21T19:48:53.752Z,20.70
2023-01-21T19:51:22.224Z,21.70
2023-01-21T19:53:53.195Z,21.10
2023-01-21T19:56:25.191Z,20.13
2023-01-21T19:58:54.947Z,21.27
2023-01-21T20:01:23.267Z,21.17
2023-01-21T20:04:00.242Z,23.43
2023-01-21T20:06:33.531Z,21.37
2023-01-21T20:09:02.371Z,20.50
2023-01-21T20:11:30.598Z,20.80
2023-01-21T20:14:00.159Z,22.00
2023-01-21T20:16:28.362Z,21.33
2023-01-21T20:18:56.556Z,21.80
2023-01-21T20:21:27.753Z,22.23
2023-01-21T20:23:56.025Z,20.47
2023-01-21T20:26:28.559Z,20.80
2023-01-21T20:29:00.054Z,21.87
2023-01-21T20:31:30.264Z,22.17
2023-01-21T20:33:58.658Z,22.23
2023-01-21T20:36:28.036Z,20.57
2023-01-21T20:38:56.709Z,22.23
2023-01-21T20:41:24.888Z,23.00
2023-01-21T20:43:53.186Z,23.13
2023-01-21T20:46:24.771Z,19.83
2023-01-21T20:48:54.724Z,21.37
2023-01-21T20:51:23.066Z,20.63
2023-01-21T20:53:53.531Z,20.47
2023-01-21T20:56:25.851Z,19.00
2023-01-21T20:58:54.330Z,20.60
2023-01-21T21:01:24.789Z,19.67
2023-01-21T21:03:54.320Z,18.67
2023-01-21T21:06:24.027Z,21.83
2023-01-21T21:08:54.641Z,20.80
2023-01-21T21:11:22.926Z,20.10
2023-01-21T21:13:52.387Z,18.43
2023-01-21T21:16:23.787Z,20.33
2023-01-21T21:18:52.221Z,19.47
2023-01-21T21:21:23.884Z,22.63
2023-01-21T21:23:52.856Z,20.33
2023-01-21T21:26:23.659Z,20.10
2023-01-21T21:28:54.538Z,20.70
2023-01-21T21:31:23.464Z,19.47
2023-01-21T21:33:51.985Z,18.30
2023-01-21T21:36:23.750Z,21.07
2023-01-21T21:38:55.529Z,17.50
2023-01-21T21:41:43.557Z,19.27
2023-01-21T21:44:12.353Z,18.87
2023-01-21T21:46:58.447Z,17.87
2023-01-21T21:49:26.950Z,18.70
2023-01-21T21:51:56.933Z,21.00
2023-01-21T21:54:27.433Z,21.10
2023-01-21T21:56:56.256Z,18.43
2023-01-21T21:59:24.657Z,19.27
2023-01-21T22:01:55.402Z,18.50
2023-01-21T22:04:23.776Z,19.93
2023-01-21T22:06:52.045Z,18.17
2023-01-21T22:09:21.859Z,18.60
2023-01-21T22:11:50.064Z,16.93
2023-01-21T22:14:20.503Z,18.30
2023-01-21T22:16:51.994Z,19.77
2023-01-21T22:19:20.343Z,17.83
2023-01-21T22:21:50.598Z,16.57
2023-01-21T22:24:19.128Z,16.93
2023-01-21T22:26:48.643Z,15.10
2023-01-21T22:29:19.300Z,14.77
2023-01-21T22:31:47.481Z,14.97
2023-01-21T22:34:18.106Z,14.20
2023-01-21T22:36:48.411Z,15.40
2023-01-21T22:39:19.006Z,14.33
2023-01-21T22:41:48.528Z,14.07
2023-01-21T22:44:19.179Z,15.80
2023-01-21T22:46:47.935Z,15.90
2023-01-21T22:49:16.128Z,14.00
2023-01-21T22:51:44.311Z,15.20
2023-01-21T22:54:12.563Z,15.87
2023-01-21T22:56:51.998Z,15.63
2023-01-21T22:59:22.649Z,15.83
2023-01-21T23:01:51.358Z,15.60
2023-01-21T23:04:19.741Z,13.87
2023-01-21T23:06:48.814Z,15.07
2023-01-21T23:09:17.683Z,14.50
2023-01-21T23:11:46.033Z,12.70
2023-01-21T23:14:14.207Z,13.50
2023-01-21T23:16:47.116Z,13.13
2023-01-21T23:19:15.708Z,13.43
2023-01-21T23:21:44.204Z,13.83
2023-01-21T23:24:12.438Z,13.97
2023-01-21T23:26:40.815Z,13.80
2023-01-21T23:29:09.086Z,14.27
2023-01-21T23:31:37.411Z,13.67
2023-01-21T23:34:09.209Z,13.07
2023-01-21T23:36:37.365Z,13.73
2023-01-21T23:39:05.498Z,13.67
2023-01-21T23:41:33.829Z,13.23
2023-01-21T23:44:02.488Z,12.67
2023-01-21T23:46:41.373Z,11.33
2023-01-21T23:49:14.675Z,11.17
2023-01-21T23:51:42.846Z,11.50
2023-01-21T23:54:14.082Z,11.70
2023-01-21T23:56:42.392Z,12.33
2023-01-21T23:59:10.514Z,12.63
